Terminal Aerodrome Forecast
Issued by NWS

Home | Current Version | Previous Version | Text Only | Print | Product List | Glossary On
Versions: 1 2 3 4 5 6 7 8 9 10 11 12 13 14 15 16 17
032
FTUS46 KHNX 182320
TAFMER
TAF
KMER 182320Z 1900/1924 15012KT 3SM -RA BR BKN050 OVC100
      TEMPO 1902/1906 14017G29KT 2SM SHRA BR BKN030 OVC050
     FM190600 13015G23KT 3SM -SHRA BR SCT015 OVC030
     FM191900 14009KT 4SM -SHRA BKN025 OVC045 PROB30 1920/1924 -TSRA
      BKN040CB=

USA.gov is the U.S. government's official web portal to all federal, state and local government web resources and services.